Time;durP1;ratioP1;P1;durP2;ratioP2;P2;SDS_P1;SDS_P2;PMS_P1;PMS_P2;Temp;Humidity;BMP_temperature;BMP_pressure;BME280_temperature;BME280_humidity;BME280_pressure;Samples;Min_cycle;Max_cycle;Signal;HPM_P1;HPM_P2
2022/08/02 00:01:42;;;;;;;5.17;4.60;;;;;;;22.54;57.38;98922.44;5005934;28;20202;-91
2022/08/02 00:04:08;;;;;;;5.00;4.50;;;;;;;18.31;57.83;98214.72;5004680;28;20238;-91
2022/08/02 00:06:34;;;;;;;6.97;4.73;;;;;;;18.20;57.63;98194.31;5022859;28;20159;-92
2022/08/02 00:09:00;;;;;;;5.27;4.57;;;;;;;20.26;58.09;98561.56;5021353;28;20646;-90
2022/08/02 00:11:25;;;;;;;5.93;4.70;;;;;;;20.76;58.32;98649.44;5025274;28;20163;-91
2022/08/02 00:13:51;;;;;;;5.73;4.77;;;;;;;20.95;58.61;98717.00;5025626;28;20163;-89
2022/08/02 00:16:17;;;;;;;6.47;4.73;;;;;;;20.86;58.35;98676.78;5015303;28;20179;-91
2022/08/02 00:18:43;;;;;;;5.43;4.77;;;;;;;17.80;58.49;98184.28;5035125;28;20190;-87
2022/08/02 00:21:09;;;;;;;5.33;4.73;;;;;;;22.23;58.80;98944.25;5017985;28;20170;-90
2022/08/02 00:23:35;;;;;;;5.47;4.97;;;;;;;18.53;58.58;98306.03;5032468;28;20165;-91
2022/08/02 00:26:00;;;;;;;5.40;4.83;;;;;;;17.83;58.91;98197.03;5032335;28;20198;-91
2022/08/02 00:28:26;;;;;;;5.87;4.90;;;;;;;19.52;58.72;98483.31;5005078;28;20167;-90
2022/08/02 00:30:52;;;;;;;6.33;5.10;;;;;;;17.82;58.26;98216.69;5005935;28;20175;-91
2022/08/02 00:33:18;;;;;;;7.57;4.60;;;;;;;20.90;58.37;98724.78;5004885;28;20178;-91
2022/08/02 00:35:47;;;;;;;6.27;4.80;;;;;;;20.74;57.52;98670.91;5021524;28;20226;-90
2022/08/02 00:38:13;;;;;;;6.57;4.50;;;;;;;18.16;56.83;98207.97;5008118;28;20194;-90
2022/08/02 00:40:39;;;;;;;5.33;4.60;;;;;;;18.18;56.80;98216.50;5005937;28;20175;-90
2022/08/02 00:43:13;;;;;;;7.10;4.80;;;;;;;18.22;56.74;98196.84;5003795;28;20171;-91
2022/08/02 00:45:40;;;;;;;7.77;4.63;;;;;;;22.44;56.79;98915.69;5025181;28;20258;-90
2022/08/02 00:48:09;;;;;;;5.90;5.00;;;;;;;21.59;56.54;98777.34;5006765;28;20198;-93
2022/08/02 00:50:36;;;;;;;6.10;5.23;;;;;;;18.85;57.04;98341.72;5022116;28;20185;-92
2022/08/02 00:53:02;;;;;;;4.93;4.43;;;;;;;18.83;56.95;98321.25;5004663;28;20258;-90
2022/08/02 00:55:28;;;;;;;6.50;5.00;;;;;;;20.68;57.54;98663.22;5008008;28;20166;-89
2022/08/02 00:57:54;;;;;;;6.53;4.77;;;;;;;18.46;57.42;98262.50;5029728;28;20269;-91
2022/08/02 01:00:20;;;;;;;5.60;4.83;;;;;;;20.51;57.66;98645.34;5013084;28;20619;-91
2022/08/02 01:02:46;;;;;;;5.73;4.70;;;;;;;19.89;57.12;98542.97;5007410;28;20171;-90
2022/08/02 01:05:13;;;;;;;5.10;4.60;;;;;;;17.77;57.13;98167.22;5005021;28;20181;-92
2022/08/02 01:07:39;;;;;;;5.17;4.67;;;;;;;19.74;57.24;98489.16;5021130;28;20595;-91
2022/08/02 01:10:05;;;;;;;5.53;4.47;;;;;;;17.94;57.07;98191.03;5006674;28;20646;-90
2022/08/02 01:12:31;;;;;;;6.40;4.50;;;;;;;18.08;57.27;98212.28;5010135;28;20170;-90
2022/08/02 01:15:00;;;;;;;5.33;4.53;;;;;;;18.19;57.39;98236.16;5022480;28;20178;-90
2022/08/02 01:17:31;;;;;;;5.73;4.83;;;;;;;22.05;57.09;98890.31;5024756;28;20521;-91
2022/08/02 01:20:24;;;;;;;5.10;4.60;;;;;;;21.94;57.57;98892.16;5025895;28;20182;-91
2022/08/02 01:23:08;;;;;;;8.83;4.90;;;;;;;21.61;57.21;98837.47;5008813;28;20171;-91
2022/08/02 01:25:36;;;;;;;8.50;5.10;;;;;;;21.90;57.40;98890.44;5009151;28;20175;-90
2022/08/02 01:28:39;;;;;;;11.23;7.07;;;;;;;21.93;56.71;98890.41;5010394;28;20239;-91
2022/08/02 01:31:28;;;;;;;8.93;6.47;;;;;;;20.82;57.36;98718.00;5026391;28;20173;-89
2022/08/02 01:34:17;;;;;;;8.90;6.40;;;;;;;21.82;57.65;98899.94;5005325;28;20224;-90
2022/08/02 01:36:57;;;;;;;8.40;6.10;;;;;;;21.48;57.57;98837.59;5008649;28;20292;-90
2022/08/02 01:39:27;;;;;;;7.07;5.37;;;;;;;21.87;57.55;98893.06;5010963;28;20205;-90
2022/08/02 01:41:56;;;;;;;5.83;4.67;;;;;;;21.59;57.26;98839.19;5026673;28;20179;-91
2022/08/02 01:44:25;;;;;;;5.53;4.63;;;;;;;21.44;57.07;98811.00;5008890;28;20270;-91
2022/08/02 01:46:52;;;;;;;5.53;4.40;;;;;;;19.91;57.20;98552.38;5022528;28;20177;-89
2022/08/02 01:49:21;;;;;;;5.23;4.70;;;;;;;19.32;57.40;98470.59;5024348;28;20166;-89
2022/08/02 01:54:36;;;;;;;6.47;5.20;;;;;;;21.46;58.04;98834.16;5034153;28;20202;-91
2022/08/02 01:57:05;;;;;;;6.40;5.03;;;;;;;21.33;58.25;98850.59;5015133;28;20201;-89
2022/08/02 01:59:32;;;;;;;8.53;5.57;;;;;;;19.95;59.41;98643.13;5027682;28;20284;-90
2022/08/02 02:02:00;;;;;;;10.03;7.10;;;;;;;18.92;60.02;98501.59;5003348;28;20619;-91
2022/08/02 02:04:27;;;;;;;15.33;8.73;;;;;;;17.84;60.60;98325.06;5021065;28;20169;-91
2022/08/02 02:06:55;;;;;;;16.07;10.03;;;;;;;17.65;61.04;98331.94;5021839;28;20194;-90
2022/08/02 02:09:21;;;;;;;18.97;10.73;;;;;;;16.73;61.73;98165.75;5004020;28;20175;-91
2022/08/02 02:11:48;;;;;;;18.03;11.10;;;;;;;17.26;62.13;98262.00;5003772;28;20181;-90
2022/08/02 02:14:16;;;;;;;16.67;10.50;;;;;;;19.32;62.37;98639.13;5004088;28;20178;-90
2022/08/02 02:16:44;;;;;;;18.60;11.83;;;;;;;17.77;62.53;98366.91;5020651;28;20203;-90
2022/08/02 02:19:15;;;;;;;20.60;11.23;;;;;;;16.14;63.10;98124.84;5020704;28;20173;-89
2022/08/02 02:21:41;;;;;;;21.17;10.17;;;;;;;16.46;63.09;98166.56;5003277;28;20204;-90
2022/08/02 02:24:06;;;;;;;17.30;9.10;;;;;;;19.85;62.60;98736.53;5020024;28;20178;-90
2022/08/02 02:26:34;;;;;;;12.60;7.53;;;;;;;17.27;61.79;98272.25;5020250;28;20167;-91
2022/08/02 02:29:05;;;;;;;10.33;6.00;;;;;;;18.39;61.74;98450.44;5003152;28;20206;-91
2022/08/02 02:31:38;;;;;;;7.43;5.30;;;;;;;19.56;61.83;98643.34;5003805;28;20308;-91
2022/08/02 02:34:10;;;;;;;10.33;6.10;;;;;;;17.47;61.61;98306.31;5002549;28;20613;-91
2022/08/02 02:36:39;;;;;;;10.57;6.07;;;;;;;18.68;61.65;98505.06;5003502;28;20248;-90
2022/08/02 02:39:06;;;;;;;12.70;8.17;;;;;;;18.99;61.62;98567.38;5002617;28;20656;-89
2022/08/02 02:41:32;;;;;;;14.60;8.23;;;;;;;18.40;62.17;98496.59;5001647;28;20178;-91
2022/08/02 02:44:01;;;;;;;12.30;8.10;;;;;;;20.48;63.31;98841.69;5019412;28;20178;-90
2022/08/02 02:46:30;;;;;;;16.13;9.23;;;;;;;19.04;63.45;98607.56;5002137;28;20273;-91
2022/08/02 02:48:56;;;;;;;17.50;10.13;;;;;;;17.10;63.70;98304.66;5002069;28;20174;-90
2022/08/02 02:51:23;;;;;;;12.60;8.00;;;;;;;17.89;64.07;98445.41;5028922;28;20649;-90
2022/08/02 02:53:50;;;;;;;12.40;7.90;;;;;;;16.68;63.82;98230.47;5030525;28;20167;-90
2022/08/02 02:56:17;;;;;;;9.60;6.97;;;;;;;19.19;63.77;98643.44;5011900;28;20178;-91
2022/08/02 02:58:45;;;;;;;9.27;6.47;;;;;;;16.53;63.74;98228.78;5020721;28;20166;-91
2022/08/02 03:01:28;;;;;;;10.80;7.20;;;;;;;17.74;64.11;98433.47;5021140;28;20159;-90
2022/08/02 03:04:00;;;;;;;13.40;7.73;;;;;;;16.12;64.28;98169.09;5005125;28;20170;-89
2022/08/02 03:06:26;;;;;;;19.17;9.80;;;;;;;17.74;64.66;98466.75;5020670;28;20678;-88
2022/08/02 03:08:51;;;;;;;14.70;9.03;;;;;;;19.68;65.46;98797.38;5021767;28;20195;-91
2022/08/02 03:11:17;;;;;;;14.47;8.27;;;;;;;16.20;66.00;98203.16;5003734;28;20222;-90
2022/08/02 03:13:43;;;;;;;13.03;8.20;;;;;;;17.33;66.30;98437.69;5004451;28;20172;-91
2022/08/02 03:16:10;;;;;;;9.37;6.10;;;;;;;17.71;67.57;98543.56;5003533;28;20166;-91
2022/08/02 03:18:41;;;;;;;8.07;5.87;;;;;;;16.95;67.72;98430.78;5005108;28;20222;-91
2022/08/02 03:21:15;;;;;;;6.13;5.00;;;;;;;17.65;68.55;98574.25;5020172;28;20571;-91
2022/08/02 03:23:42;;;;;;;10.60;5.40;;;;;;;14.74;68.63;98087.75;5021112;28;20186;-91
2022/08/02 03:26:11;;;;;;;9.33;6.50;;;;;;;15.83;69.48;98284.72;5003540;28;20623;-89
2022/08/02 03:28:37;;;;;;;8.50;5.80;;;;;;;14.31;69.35;98022.06;5002920;28;20190;-90
2022/08/02 03:31:03;;;;;;;6.10;5.00;;;;;;;18.16;69.43;98637.50;5001930;28;20162;-90
2022/08/02 03:33:30;;;;;;;5.90;5.17;;;;;;;19.64;68.88;98883.84;5018690;28;20666;-90
2022/08/02 03:35:58;;;;;;;9.40;5.20;;;;;;;19.45;68.71;98851.31;5020249;28;20214;-90
2022/08/02 03:38:25;;;;;;;5.90;5.30;;;;;;;15.42;68.37;98191.78;5004973;28;20193;-91
2022/08/02 03:40:52;;;;;;;6.43;5.20;;;;;;;15.11;68.16;98131.25;5011698;28;20174;-90
2022/08/02 03:43:18;;;;;;;6.87;5.37;;;;;;;19.71;68.25;98926.66;5024339;28;20166;-89
2022/08/02 03:45:46;;;;;;;6.70;5.07;;;;;;;16.23;67.98;98312.97;5022315;28;20198;-90
2022/08/02 03:48:14;;;;;;;5.77;5.00;;;;;;;16.06;66.96;98261.84;5028448;28;20210;-91
2022/08/02 03:50:41;;;;;;;7.50;5.40;;;;;;;16.37;67.84;98334.31;5030300;28;20231;-90
2022/08/02 03:53:07;;;;;;;9.20;5.17;;;;;;;16.03;67.74;98272.03;5011718;28;20183;-91
2022/08/02 03:55:33;;;;;;;5.80;5.20;;;;;;;16.84;67.29;98395.78;5002966;28;20171;-91
2022/08/02 03:57:59;;;;;;;7.20;4.90;;;;;;;17.28;66.95;98459.84;5002476;28;20240;-90
2022/08/02 04:00:25;;;;;;;6.93;5.10;;;;;;;18.75;66.20;98676.88;5001677;28;20619;-90
2022/08/02 04:02:50;;;;;;;10.13;5.13;;;;;;;16.14;65.02;98187.81;5007979;28;20175;-89
2022/08/02 04:05:17;;;;;;;9.37;5.20;;;;;;;18.81;64.76;98666.63;5026165;28;20230;-89
2022/08/02 04:07:43;;;;;;;11.97;5.30;;;;;;;16.71;64.79;98263.72;5022661;28;20186;-90
2022/08/02 04:10:09;;;;;;;6.93;4.97;;;;;;;16.56;64.17;98236.47;5019503;28;20548;-90
2022/08/02 04:12:35;;;;;;;7.40;4.87;;;;;;;17.59;63.55;98413.84;5018257;28;20660;-90
2022/08/02 04:15:02;;;;;;;10.37;6.43;;;;;;;20.49;63.67;98876.78;5019726;28;20194;-90
2022/08/02 04:17:31;;;;;;;14.33;8.63;;;;;;;19.19;63.74;98663.97;5001983;28;20579;-90
2022/08/02 04:20:04;;;;;;;15.37;8.73;;;;;;;17.34;63.12;98327.66;5002901;28;20190;-91
2022/08/02 04:22:37;;;;;;;16.37;8.87;;;;;;;19.72;62.58;98678.38;5001848;28;20253;-90
2022/08/02 04:25:05;;;;;;;13.27;7.00;;;;;;;17.38;62.18;98274.78;5002977;28;20253;-89
2022/08/02 04:27:33;;;;;;;11.40;6.50;;;;;;;21.58;62.63;98960.28;5020153;28;20162;-91
2022/08/02 04:29:59;;;;;;;16.87;9.40;;;;;;;19.77;63.19;98635.53;4995970;28;20222;-90
2022/08/02 04:32:25;;;;;;;41.70;18.93;;;;;;;21.20;63.20;98865.28;5039504;28;20247;-90
2022/08/02 04:34:51;;;;;;;28.07;11.23;;;;;;;20.88;63.44;98811.41;5040910;28;20677;-90
2022/08/02 04:37:17;;;;;;;14.10;7.47;;;;;;;21.04;63.15;98837.91;5057825;28;20224;-90
2022/08/02 04:39:42;;;;;;;16.33;7.70;;;;;;;20.51;63.53;98767.09;5040649;28;20186;-90
2022/08/02 04:42:08;;;;;;;16.50;6.83;;;;;;;21.53;63.30;98924.25;5041643;28;20672;-89
2022/08/02 04:44:34;;;;;;;9.17;6.00;;;;;;;21.51;64.18;98933.69;5024946;28;20216;-89
2022/08/02 04:47:01;;;;;;;11.43;6.73;;;;;;;21.55;64.50;98937.13;5048239;28;20182;-88
2022/08/02 04:49:30;;;;;;;11.40;6.30;;;;;;;20.93;64.86;98863.69;5045332;28;20186;-90
2022/08/02 04:51:56;;;;;;;10.43;6.87;;;;;;;19.75;64.09;98621.88;5026080;28;20181;-90
2022/08/02 04:54:24;;;;;;;11.23;6.70;;;;;;;21.22;62.48;98822.34;5026924;28;20276;-89
2022/08/02 04:56:50;;;;;;;11.33;6.80;;;;;;;21.82;62.00;98899.94;5025801;28;20217;-90
2022/08/02 04:59:15;;;;;;;11.07;6.50;;;;;;;20.81;61.38;98713.69;5026125;28;20559;-91
2022/08/02 05:01:41;;;;;;;8.80;5.77;;;;;;;22.17;60.17;98934.88;5043949;28;20200;-88
2022/08/02 05:04:06;;;;;;;7.57;5.73;;;;;;;21.54;59.89;98822.91;5026681;28;20212;-90
2022/08/02 05:06:32;;;;;;;11.07;5.30;;;;;;;20.89;59.16;98696.47;5026739;28;20181;-91
2022/08/02 05:08:57;;;;;;;7.17;5.33;;;;;;;21.46;59.12;98806.69;5026300;28;20181;-89
2022/08/02 05:11:24;;;;;;;7.73;6.10;;;;;;;21.04;58.44;98692.03;5027322;28;20188;-91
2022/08/02 05:13:50;;;;;;;8.47;5.50;;;;;;;22.96;56.54;98936.56;5025251;28;20189;-91
2022/08/02 05:16:15;;;;;;;9.83;6.03;;;;;;;21.26;56.51;98661.81;5043158;28;20572;-88
2022/08/02 05:18:41;;;;;;;10.77;6.03;;;;;;;22.15;56.30;98794.78;5024725;28;20217;-91
2022/08/02 05:21:06;;;;;;;13.03;7.63;;;;;;;22.29;55.90;98802.34;5041919;28;20181;-90
2022/08/02 05:23:31;;;;;;;17.93;9.17;;;;;;;23.55;55.29;98925.38;5025404;28;20737;-88
2022/08/02 05:25:57;;;;;;;12.53;6.10;;;;;;;21.53;54.86;98597.13;5043168;28;20189;-90
2022/08/02 05:28:23;;;;;;;10.70;5.60;;;;;;;23.37;54.61;98897.22;5042772;28;20244;-90
2022/08/02 05:30:48;;;;;;;9.20;5.77;;;;;;;23.01;55.16;98836.66;5033921;28;20657;-89
2022/08/02 05:33:13;;;;;;;11.77;6.30;;;;;;;22.95;53.71;98795.41;5026241;28;20204;-91
2022/08/02 05:35:39;;;;;;;8.53;5.83;;;;;;;23.96;52.71;98948.81;5045094;28;20260;-91
2022/08/02 05:38:04;;;;;;;7.23;5.20;;;;;;;22.42;52.03;98668.91;5044649;28;20351;-88
2022/08/02 05:40:30;;;;;;;8.03;5.10;;;;;;;23.08;52.22;98806.41;5030914;28;20277;-89
2022/08/02 05:42:55;;;;;;;8.80;4.70;;;;;;;23.69;51.57;98856.22;5034655;28;20243;-91
2022/08/02 05:45:21;;;;;;;6.40;4.87;;;;;;;24.31;49.35;98906.78;5034449;28;20190;-87
2022/08/02 05:47:47;;;;;;;8.03;4.70;;;;;;;23.27;48.83;98699.31;5028471;28;20189;-90
2022/08/02 05:50:12;;;;;;;6.53;4.30;;;;;;;24.04;47.91;98780.56;5046559;28;20239;-90
2022/08/02 05:52:50;;;;;;;5.43;4.40;;;;;;;24.73;46.32;98951.69;5028603;28;20628;-88
2022/08/02 05:55:21;;;;;;;8.40;4.60;;;;;;;23.69;46.34;98783.84;5027807;28;20245;-90
2022/08/02 05:58:10;;;;;;;7.17;4.90;;;;;;;24.64;46.64;98951.84;5025411;28;20236;-90
2022/08/02 06:00:39;;;;;;;6.13;4.40;;;;;;;24.39;46.44;98852.31;5023100;28;20280;-91
2022/08/02 06:03:23;;;;;;;5.20;4.70;;;;;;;24.75;46.21;98943.91;5041650;28;20196;-88
2022/08/02 06:06:10;;;;;;;8.83;4.80;;;;;;;24.92;46.98;98955.63;5056187;28;20200;-90
2022/08/02 06:08:45;;;;;;;9.87;5.80;;;;;;;25.22;46.30;98947.19;5022493;28;20185;-90
2022/08/02 06:11:21;;;;;;;7.37;4.70;;;;;;;25.47;45.47;98959.63;5022755;28;20186;-91
2022/08/02 06:13:48;;;;;;;5.37;4.63;;;;;;;23.88;45.73;98754.16;5042668;28;20178;-90
2022/08/02 06:16:13;;;;;;;5.10;4.60;;;;;;;25.00;44.98;98903.66;5038054;28;20244;-90
2022/08/02 06:18:43;;;;;;;6.10;4.70;;;;;;;25.39;45.11;98933.00;5037420;28;20205;-89
2022/08/02 06:21:09;;;;;;;6.23;4.70;;;;;;;24.40;44.65;98778.97;5021060;28;20209;-93
2022/08/02 06:23:40;;;;;;;6.90;4.23;;;;;;;24.75;44.74;98882.59;5024085;28;20790;-89
2022/08/02 06:26:08;;;;;;;5.20;4.20;;;;;;;25.32;44.93;98916.75;5056951;28;20607;-91
2022/08/02 06:28:37;;;;;;;4.70;3.87;;;;;;;24.16;44.97;98712.22;5026220;28;20186;-89
2022/08/02 06:31:04;;;;;;;4.93;4.30;;;;;;;24.65;44.44;98723.16;5010695;28;20245;-91
2022/08/02 06:33:30;;;;;;;7.23;4.30;;;;;;;24.54;44.00;98704.44;5020453;28;20235;-90
2022/08/02 06:36:17;;;;;;;6.00;4.43;;;;;;;25.60;45.24;98974.03;5040460;28;20260;-89
2022/08/02 06:39:05;;;;;;;5.00;4.20;;;;;;;25.58;45.28;98970.59;5032219;28;20258;-89
2022/08/02 06:41:39;;;;;;;4.43;3.90;;;;;;;25.98;44.51;98973.94;5048433;28;20210;-87
2022/08/02 06:44:05;;;;;;;6.90;4.30;;;;;;;25.00;45.16;98873.44;5020200;28;20184;-89
2022/08/02 06:46:31;;;;;;;5.83;4.20;;;;;;;25.82;45.21;98980.41;5038752;28;20202;-91
2022/08/02 06:48:59;;;;;;;5.53;3.87;;;;;;;25.67;44.92;98929.75;5019039;28;20203;-90
2022/08/02 06:51:24;;;;;;;4.33;3.70;;;;;;;25.25;44.13;98829.66;5020112;28;20646;-89
2022/08/02 06:53:49;;;;;;;6.77;3.80;;;;;;;26.10;42.96;98848.19;5021442;28;20228;-92
2022/08/02 06:56:15;;;;;;;6.23;3.90;;;;;;;25.09;44.00;98742.84;5039506;28;20212;-91
2022/08/02 06:58:40;;;;;;;5.67;4.00;;;;;;;25.18;43.29;98773.72;5048029;28;20208;-91
2022/08/02 07:01:06;;;;;;;6.20;3.63;;;;;;;25.91;43.56;98907.53;5041302;28;20193;-89
2022/08/02 07:03:33;;;;;;;6.53;3.60;;;;;;;25.92;43.63;98874.66;5054593;28;20194;-90
2022/08/02 07:06:08;;;;;;;5.90;3.83;;;;;;;24.24;43.57;98601.66;5020163;28;20197;-89
2022/08/02 07:08:37;;;;;;;6.47;3.83;;;;;;;24.61;42.55;98563.66;5019809;28;20248;-90
2022/08/02 07:11:03;;;;;;;6.05;4.22;;;;;;;26.30;41.57;98724.81;5021996;28;20203;-91
2022/08/02 07:13:28;;;;;;;5.20;4.30;;;;;;;26.54;41.39;98745.69;5021111;28;20192;-91
2022/08/02 07:15:54;;;;;;;4.60;4.20;;;;;;;27.40;41.62;98975.19;5021466;28;20184;-90
2022/08/02 07:18:20;;;;;;;5.70;4.10;;;;;;;26.45;41.41;98784.94;5020208;28;20240;-90
2022/08/02 07:20:46;;;;;;;4.95;3.92;;;;;;;27.33;41.08;98932.03;5039361;28;20189;-90
2022/08/02 07:23:12;;;;;;;6.30;4.07;;;;;;;27.18;41.50;98968.06;5038460;28;20273;-91
2022/08/02 07:25:38;;;;;;;4.45;3.65;;;;;;;27.28;41.44;98975.53;5039784;28;20196;-90
2022/08/02 07:28:04;;;;;;;4.25;3.85;;;;;;;27.30;41.77;98936.50;5007932;28;20197;-91
2022/08/02 07:30:31;;;;;;;27.38;14.90;;;;;;;26.88;40.92;98821.72;5012717;28;20703;-91
2022/08/02 07:32:58;;;;;;;5.78;4.15;;;;;;;28.10;39.98;98965.16;5021831;28;20189;-92
2022/08/02 07:35:24;;;;;;;14.32;4.20;;;;;;;26.98;39.19;98692.34;5025763;28;20246;-91
2022/08/02 07:37:50;;;;;;;4.10;3.65;;;;;;;27.34;40.21;98826.28;5025818;28;20207;-90
2022/08/02 07:40:15;;;;;;;5.82;4.32;;;;;;;28.52;39.26;98966.22;5047021;28;20820;-90
2022/08/02 07:42:43;;;;;;;5.30;3.55;;;;;;;27.41;38.04;98683.03;5022257;28;20237;-91
2022/08/02 07:45:09;;;;;;;4.07;3.40;;;;;;;28.75;39.36;98964.59;5038414;28;20183;-91
2022/08/02 07:47:38;;;;;;;25.63;15.65;;;;;;;28.34;38.01;98839.28;5021636;28;20196;-89
2022/08/02 07:50:06;;;;;;;14.48;8.20;;;;;;;29.39;37.82;98971.72;5023031;28;20275;-90
2022/08/02 07:52:31;;;;;;;7.00;4.20;;;;;;;28.97;38.22;98981.13;5021895;28;20191;-90
2022/08/02 07:54:56;;;;;;;8.25;5.03;;;;;;;28.05;37.79;98764.00;5022017;28;20186;-89
2022/08/02 07:57:22;;;;;;;5.22;3.30;;;;;;;28.09;37.53;98784.69;5024480;28;20719;-92
2022/08/02 07:59:47;;;;;;;3.00;2.70;;;;;;;27.78;38.75;98806.59;5026144;28;20181;-92
2022/08/02 08:02:13;;;;;;;4.10;2.50;;;;;;;29.32;38.07;98975.47;5025728;28;20707;-91
2022/08/02 08:04:39;;;;;;;2.70;2.40;;;;;;;28.98;37.05;98881.19;5040903;28;20176;-91
2022/08/02 08:07:08;;;;;;;3.10;2.25;;;;;;;29.09;37.38;98973.69;5023435;28;20256;-91
2022/08/02 08:09:38;;;;;;;3.58;2.40;;;;;;;28.33;37.70;98808.94;5033575;28;20271;-91
2022/08/02 08:12:05;;;;;;;2.22;2.03;;;;;;;29.37;36.96;98964.84;5023933;28;20180;-91
2022/08/02 08:14:30;;;;;;;2.17;2.00;;;;;;;27.50;36.70;98625.53;5022482;28;20292;-91
2022/08/02 08:16:56;;;;;;;3.85;2.30;;;;;;;25.77;37.60;98420.34;5022713;28;20873;-91
2022/08/02 08:19:21;;;;;;;3.13;2.80;;;;;;;28.37;36.73;98787.09;5041557;28;20173;-91
2022/08/02 08:21:47;;;;;;;3.25;2.15;;;;;;;29.68;36.89;99000.09;5020458;28;20566;-92
2022/08/02 08:24:12;;;;;;;2.47;2.08;;;;;;;29.51;35.48;98856.41;5040081;28;20232;-91
2022/08/02 08:26:38;;;;;;;2.30;2.10;;;;;;;27.26;35.43;98379.44;5043350;28;20222;-89
2022/08/02 08:29:05;;;;;;;2.10;1.90;;;;;;;28.94;34.82;98656.28;5028749;28;20172;-89
2022/08/02 08:31:31;;;;;;;2.42;1.92;;;;;;;26.92;36.23;98511.53;5048571;28;20586;-89
2022/08/02 08:33:57;;;;;;;3.08;1.98;;;;;;;28.24;34.92;98619.22;5050966;28;20236;-90
2022/08/02 08:36:23;;;;;;;2.30;2.10;;;;;;;28.64;36.07;98707.91;5030135;28;20320;-91
2022/08/02 08:38:49;;;;;;;2.08;1.95;;;;;;;28.54;35.81;98693.50;5044900;28;20233;-93
2022/08/02 08:41:18;;;;;;;2.15;1.95;;;;;;;27.24;35.19;98396.00;5028993;28;20254;-90
2022/08/02 08:43:45;;;;;;;4.28;2.00;;;;;;;27.75;34.98;98474.56;5022976;28;20173;-91
2022/08/02 08:46:25;;;;;;;2.60;1.90;;;;;;;28.37;35.03;98557.94;5038698;28;20176;-92
2022/08/02 08:48:53;;;;;;;3.97;1.98;;;;;;;31.53;34.19;98978.94;5021996;28;20236;-90
2022/08/02 08:51:21;;;;;;;2.20;2.05;;;;;;;31.16;34.14;98943.19;5040433;28;20839;-91
2022/08/02 08:53:48;;;;;;;2.25;1.80;;;;;;;31.16;34.28;98934.47;5029158;28;20179;-91
2022/08/02 08:56:15;;;;;;;1.80;1.70;;;;;;;31.32;34.08;98965.06;5055786;28;20184;-89
2022/08/02 08:58:43;;;;;;;4.10;2.00;;;;;;;31.14;34.13;98960.72;5036025;28;20210;-92
2022/08/02 09:01:09;;;;;;;2.63;1.92;;;;;;;30.49;33.99;98817.31;5021914;28;20179;-92
2022/08/02 09:03:35;;;;;;;2.00;1.70;;;;;;;31.25;33.32;98907.88;5004583;28;20200;-90
2022/08/02 09:06:01;;;;;;;3.25;1.63;;;;;;;31.52;33.20;98972.00;5019653;28;20176;-91
2022/08/02 09:08:27;;;;;;;2.05;1.77;;;;;;;29.45;33.77;98689.72;5037923;28;20189;-92
2022/08/02 09:10:54;;;;;;;1.98;1.80;;;;;;;30.53;34.41;98892.06;5019618;28;20227;-91
2022/08/02 09:13:21;;;;;;;2.95;1.92;;;;;;;30.35;33.82;98743.94;5019049;28;20195;-90
2022/08/02 09:15:57;;;;;;;3.67;1.95;;;;;;;30.99;33.22;98814.16;5021090;28;20200;-90
2022/08/02 09:18:38;;;;;;;2.38;1.83;;;;;;;31.06;33.12;98758.00;5041959;28;20215;-91
2022/08/02 09:21:06;;;;;;;1.98;1.77;;;;;;;31.51;33.23;98912.72;5022731;28;20203;-90
2022/08/02 09:23:39;;;;;;;3.65;2.00;;;;;;;30.79;34.14;98847.25;5045244;28;20168;-91
2022/08/02 09:26:07;;;;;;;3.35;1.73;;;;;;;31.14;33.65;98836.94;5036821;28;20185;-92
2022/08/02 09:28:35;;;;;;;1.90;1.80;;;;;;;32.08;33.81;98962.22;5035396;28;20198;-90
2022/08/02 09:31:11;;;;;;;3.38;1.92;;;;;;;31.97;33.32;98953.22;5009590;28;20198;-91
2022/08/02 09:33:39;;;;;;;2.10;1.90;;;;;;;31.37;33.89;98887.19;5008804;28;20192;-93
2022/08/02 09:36:06;;;;;;;2.15;1.95;;;;;;;31.24;33.35;98841.63;5022358;28;20225;-91
2022/08/02 09:38:33;;;;;;;2.20;2.00;;;;;;;31.63;34.67;98927.00;5022587;28;20220;-91
2022/08/02 09:40:59;;;;;;;2.88;2.00;;;;;;;30.78;33.98;98712.25;5039939;28;20186;-89
2022/08/02 09:43:38;;;;;;;2.42;2.10;;;;;;;32.05;33.85;98951.94;5022403;28;20205;-92
2022/08/02 09:46:21;;;;;;;3.20;2.20;;;;;;;32.19;33.37;98959.09;5023363;28;20188;-92
2022/08/02 09:48:52;;;;;;;2.25;2.05;;;;;;;32.51;32.76;98954.78;5013425;28;20232;-90
2022/08/02 09:51:35;;;;;;;2.50;2.30;;;;;;;31.23;33.27;98776.31;5022925;28;20218;-92
2022/08/02 09:54:07;;;;;;;2.90;2.17;;;;;;;32.04;33.25;98895.22;5023673;28;20661;-90
2022/08/02 09:56:45;;;;;;;3.03;2.00;;;;;;;32.29;32.72;98896.56;5021720;28;20251;-90
2022/08/02 09:59:11;;;;;;;2.15;2.00;;;;;;;32.47;32.96;98950.66;5020690;28;20191;-90
2022/08/02 10:01:37;;;;;;;2.10;2.00;;;;;;;32.20;32.59;98886.56;5039539;28;20704;-90
2022/08/02 10:04:06;;;;;;;3.40;2.40;;;;;;;31.70;33.51;98814.03;5022891;28;20193;-91
2022/08/02 10:06:32;;;;;;;2.63;2.15;;;;;;;32.43;33.36;98938.63;5038777;28;20207;-90
2022/08/02 10:08:58;;;;;;;2.20;2.03;;;;;;;31.42;32.90;98746.53;5021977;28;20185;-89
2022/08/02 10:11:26;;;;;;;2.97;2.13;;;;;;;30.89;33.62;98707.34;5021869;28;20875;-91
2022/08/02 10:13:52;;;;;;;2.65;2.15;;;;;;;32.57;32.73;98944.03;5021867;28;20238;-90
2022/08/02 10:16:23;;;;;;;4.82;1.98;;;;;;;32.13;31.84;98846.75;5021314;28;20279;-89
2022/08/02 10:18:50;;;;;;;2.20;2.00;;;;;;;31.86;32.89;98859.47;5021874;28;20217;-90
2022/08/02 10:21:29;;;;;;;2.28;2.05;;;;;;;30.92;33.17;98756.91;5039993;28;20189;-90
2022/08/02 10:24:05;;;;;;;2.00;1.90;;;;;;;31.67;33.53;98908.47;5029074;28;20272;-92
2022/08/02 10:26:31;;;;;;;7.28;2.63;;;;;;;31.89;32.93;98861.09;5028696;28;20217;-89
2022/08/02 10:28:57;;;;;;;3.67;2.10;;;;;;;31.38;32.54;98783.38;5025208;28;20185;-90
2022/08/02 10:31:37;;;;;;;2.38;2.17;;;;;;;32.06;32.99;98848.81;5022537;28;20196;-89
2022/08/02 10:34:09;;;;;;;3.72;1.90;;;;;;;32.31;32.96;98834.41;5021018;28;20189;-91
2022/08/02 10:36:38;;;;;;;2.33;2.13;;;;;;;31.18;32.37;98724.22;5038015;28;20229;-88
2022/08/02 10:39:04;;;;;;;2.63;2.20;;;;;;;31.06;33.59;98797.22;5022060;28;20198;-91
2022/08/02 10:41:59;;;;;;;3.15;2.40;;;;;;;31.79;33.38;98918.28;5023034;28;20173;-89
2022/08/02 10:44:30;;;;;;;3.05;2.10;;;;;;;31.59;33.00;98884.41;4999119;28;20257;-91
2022/08/02 10:47:14;;;;;;;2.35;2.15;;;;;;;32.14;32.83;98934.06;4981605;28;20599;-91
2022/08/02 10:49:48;;;;;;;2.50;2.30;;;;;;;32.55;33.13;98935.41;4980057;28;20198;-91
2022/08/02 10:52:14;;;;;;;5.30;2.40;;;;;;;32.67;32.81;98939.97;4980151;28;20170;-89
2022/08/02 10:54:39;;;;;;;2.45;2.20;;;;;;;32.32;32.66;98936.56;4997506;28;20210;-90
2022/08/02 10:57:27;;;;;;;5.63;2.22;;;;;;;32.13;32.66;98893.03;4980566;28;20207;-90
2022/08/02 11:00:24;;;;;;;3.63;2.20;;;;;;;31.55;32.33;98759.84;4999021;28;20526;-91
2022/08/02 11:02:50;;;;;;;2.50;2.13;;;;;;;32.65;32.38;98926.09;4997242;28;20178;-90
2022/08/02 11:05:18;;;;;;;5.22;2.30;;;;;;;32.86;31.81;98922.31;4997539;28;20249;-91
2022/08/02 11:07:48;;;;;;;2.60;2.40;;;;;;;31.44;32.67;98715.03;4998783;28;20374;-91
2022/08/02 11:10:30;;;;;;;3.90;2.50;;;;;;;32.73;32.70;98923.06;4983003;28;20215;-91
2022/08/02 11:13:00;;;;;;;2.60;2.40;;;;;;;32.66;32.85;98926.00;4985922;28;20177;-91
2022/08/02 11:15:26;;;;;;;2.80;2.55;;;;;;;31.92;32.80;98769.28;4981940;28;20234;-91
2022/08/02 11:17:57;;;;;;;3.00;2.70;;;;;;;31.67;33.26;98771.47;4997770;28;20688;-90
2022/08/02 11:20:24;;;;;;;3.40;3.10;;;;;;;30.66;33.53;98664.94;4999458;28;20220;-90
2022/08/02 11:22:51;;;;;;;2.72;2.53;;;;;;;30.94;33.64;98759.44;5028096;28;20177;-89
2022/08/02 11:25:23;;;;;;;5.55;2.47;;;;;;;32.01;33.63;98898.00;5047644;28;20161;-89
2022/08/02 11:27:53;;;;;;;2.75;2.47;;;;;;;32.26;33.97;98901.97;5040944;28;20173;-91
2022/08/02 11:30:19;;;;;;;2.60;2.40;;;;;;;32.40;33.26;98899.47;5024924;28;20200;-90
2022/08/02 11:32:45;;;;;;;3.28;2.30;;;;;;;32.30;32.31;98788.19;5022938;28;20174;-94
2022/08/02 11:35:10;;;;;;;4.25;2.50;;;;;;;32.85;31.13;98721.31;5040247;28;20162;-90
2022/08/02 11:37:38;;;;;;;4.55;2.28;;;;;;;35.28;29.49;98901.75;5041859;28;20264;-89
2022/08/02 11:40:12;;;;;;;2.25;2.03;;;;;;;34.33;28.65;98643.09;5020594;28;20203;-90
2022/08/02 11:42:40;;;;;;;3.08;2.20;;;;;;;34.47;29.11;98721.94;5021972;28;20712;-91